createdAt,value
2023-01-13T00:00:47.748Z,1.30
2023-01-13T00:03:14.127Z,1.52
2023-01-13T00:05:40.442Z,1.15
2023-01-13T00:08:07.013Z,1.25
2023-01-13T00:10:34.294Z,1.10
2023-01-13T00:13:00.999Z,1.20
2023-01-13T00:15:27.502Z,1.25
2023-01-13T00:17:53.809Z,1.35
2023-01-13T00:20:20.286Z,1.63
2023-01-13T00:22:46.690Z,1.10
2023-01-13T00:25:13.086Z,1.40
2023-01-13T00:27:39.474Z,1.00
2023-01-13T00:30:07.374Z,1.45
2023-01-13T00:32:33.905Z,1.35
2023-01-13T00:35:00.226Z,1.25
2023-01-13T00:37:26.648Z,1.20
2023-01-13T00:39:53.168Z,0.80
2023-01-13T00:42:38.603Z,1.45
2023-01-13T00:45:05.917Z,1.15
2023-01-13T00:47:32.373Z,1.10
2023-01-13T00:49:58.711Z,1.25
2023-01-13T00:52:25.068Z,1.25
2023-01-13T00:54:51.419Z,1.30
2023-01-13T00:57:18.654Z,1.00
2023-01-13T00:59:44.977Z,1.40
2023-01-13T01:02:11.485Z,1.13
2023-01-13T01:04:39.488Z,0.80
2023-01-13T01:07:05.806Z,1.17
2023-01-13T01:09:34.457Z,1.00
2023-01-13T01:12:01.275Z,1.10
2023-01-13T01:14:27.580Z,1.05
2023-01-13T01:16:54.464Z,1.10
2023-01-13T01:19:20.795Z,1.02
2023-01-13T01:21:47.165Z,1.00
2023-01-13T01:24:15.501Z,1.10
2023-01-13T01:26:41.840Z,1.10
2023-01-13T01:29:11.632Z,0.80
2023-01-13T01:31:38.001Z,1.00
2023-01-13T01:34:04.326Z,0.90
2023-01-13T01:36:30.754Z,1.20
2023-01-13T01:38:58.305Z,1.00
2023-01-13T01:41:27.472Z,0.85
2023-01-13T01:44:07.587Z,0.90
2023-01-13T01:46:44.103Z,0.95
2023-01-13T01:49:15.790Z,1.00
2023-01-13T01:51:47.164Z,1.00
2023-01-13T01:54:17.899Z,0.80
2023-01-13T01:56:44.806Z,0.80
2023-01-13T01:59:11.466Z,1.17
2023-01-13T02:01:38.335Z,0.77
2023-01-13T02:04:14.706Z,1.10
2023-01-13T02:06:41.557Z,0.80
2023-01-13T02:09:08.337Z,1.02
2023-01-13T02:11:54.524Z,1.00
2023-01-13T02:14:22.913Z,1.00
2023-01-13T02:16:57.779Z,1.08
2023-01-13T02:19:54.562Z,1.10
2023-01-13T02:23:04.984Z,1.05
2023-01-13T02:26:26.475Z,1.10
2023-01-13T02:29:22.408Z,1.00
2023-01-13T02:31:50.087Z,1.08
2023-01-13T02:34:34.359Z,1.30
2023-01-13T02:37:07.575Z,1.20
2023-01-13T02:39:43.702Z,1.17
2023-01-13T02:42:37.619Z,0.85
2023-01-13T02:45:08.938Z,0.90
2023-01-13T02:47:37.917Z,0.70
2023-01-13T02:50:08.349Z,0.70
2023-01-13T02:52:48.379Z,0.55
2023-01-13T02:55:18.373Z,0.85
2023-01-13T02:57:45.168Z,0.88
2023-01-13T03:00:13.121Z,0.77
2023-01-13T03:02:39.536Z,1.00
2023-01-13T03:05:06.270Z,0.70
2023-01-13T03:07:35.472Z,0.80
2023-01-13T03:10:26.154Z,0.70
2023-01-13T03:13:11.120Z,0.82
2023-01-13T03:16:08.191Z,0.70
2023-01-13T03:18:45.265Z,0.70
2023-01-13T03:21:19.974Z,0.52
2023-01-13T03:23:52.176Z,0.55
2023-01-13T03:27:05.069Z,0.60
2023-01-13T03:29:41.413Z,0.63
2023-01-13T03:32:15.265Z,0.70
2023-01-13T03:34:48.531Z,0.60
2023-01-13T03:37:17.073Z,0.60
2023-01-13T03:39:48.372Z,0.57
2023-01-13T03:42:20.738Z,0.52
2023-01-13T03:44:52.703Z,0.75
2023-01-13T03:47:28.137Z,0.55
2023-01-13T03:50:10.044Z,0.60
2023-01-13T03:52:41.302Z,0.60
2023-01-13T03:55:14.927Z,0.98
2023-01-13T03:57:58.122Z,0.60
2023-01-13T04:00:28.765Z,0.52
2023-01-13T04:02:58.979Z,0.80
2023-01-13T04:05:26.034Z,0.70
2023-01-13T04:08:01.852Z,0.52
2023-01-13T04:10:31.659Z,0.70
2023-01-13T04:13:05.099Z,0.70
2023-01-13T04:15:37.754Z,0.70
2023-01-13T04:18:24.592Z,0.60
2023-01-13T04:20:52.588Z,0.60
2023-01-13T04:23:20.084Z,0.63
2023-01-13T04:25:47.203Z,0.50
2023-01-13T04:28:14.294Z,0.60
2023-01-13T04:30:42.071Z,0.60
2023-01-13T04:33:08.947Z,0.68
2023-01-13T04:35:36.048Z,0.70
2023-01-13T04:38:10.801Z,0.57
2023-01-13T04:40:37.359Z,0.80
2023-01-13T04:43:04.276Z,0.70
2023-01-13T04:45:31.140Z,0.52
2023-01-13T04:47:57.823Z,0.60
2023-01-13T04:50:24.454Z,0.75
2023-01-13T04:52:52.068Z,0.80
2023-01-13T04:55:19.262Z,0.63
2023-01-13T04:57:45.909Z,0.85
2023-01-13T05:00:14.624Z,0.70
2023-01-13T05:02:41.177Z,0.70
2023-01-13T05:05:08.168Z,0.88
2023-01-13T05:07:34.688Z,0.63
2023-01-13T05:10:01.171Z,0.63
2023-01-13T05:12:46.009Z,0.80
2023-01-13T05:15:32.589Z,0.50
2023-01-13T05:17:59.363Z,0.82
2023-01-13T05:20:26.152Z,0.45
2023-01-13T05:23:11.606Z,0.60
2023-01-13T05:25:41.464Z,0.60
2023-01-13T05:28:09.905Z,0.60
2023-01-13T05:30:38.997Z,0.60
2023-01-13T05:33:05.427Z,0.47
2023-01-13T05:35:31.929Z,0.40
2023-01-13T05:37:58.441Z,0.30
2023-01-13T05:40:43.250Z,0.40
2023-01-13T05:43:21.034Z,0.50
2023-01-13T05:45:48.408Z,0.57
2023-01-13T05:48:15.213Z,0.50
2023-01-13T05:50:41.697Z,0.60
2023-01-13T05:53:08.199Z,0.70
2023-01-13T05:55:34.798Z,0.55
2023-01-13T05:58:01.414Z,0.70
2023-01-13T06:00:27.915Z,1.08
2023-01-13T06:02:54.486Z,0.65
2023-01-13T06:05:21.057Z,0.88
2023-01-13T06:07:47.584Z,0.70
2023-01-13T06:10:14.008Z,0.50
2023-01-13T06:12:40.399Z,0.55
2023-01-13T06:15:07.338Z,0.98
2023-01-13T06:17:33.881Z,0.70
2023-01-13T06:20:00.450Z,1.02
2023-01-13T06:22:32.330Z,0.52
2023-01-13T06:24:59.113Z,0.73
2023-01-13T06:27:25.547Z,0.65
2023-01-13T06:29:52.022Z,0.50
2023-01-13T06:32:28.756Z,0.60
2023-01-13T06:34:59.101Z,0.80
2023-01-13T06:37:26.781Z,0.93
2023-01-13T06:39:58.230Z,0.70
2023-01-13T06:42:44.745Z,1.10
2023-01-13T06:45:11.108Z,0.82
2023-01-13T06:47:37.569Z,0.80
2023-01-13T06:50:04.255Z,0.80
2023-01-13T06:52:30.645Z,1.02
2023-01-13T06:54:57.629Z,2.92
2023-01-13T06:57:24.377Z,2.30
2023-01-13T06:59:50.779Z,1.90
2023-01-13T07:02:17.191Z,1.52
2023-01-13T07:04:44.334Z,1.60
2023-01-13T07:07:12.263Z,1.73
2023-01-13T07:09:39.243Z,1.63
2023-01-13T07:12:05.743Z,1.70
2023-01-13T07:14:51.450Z,1.42
2023-01-13T07:17:24.966Z,1.20
2023-01-13T07:19:52.245Z,0.90
2023-01-13T07:22:18.723Z,1.10
2023-01-13T07:24:45.131Z,0.93
2023-01-13T07:27:11.629Z,1.05
2023-01-13T07:29:38.034Z,1.40
2023-01-13T07:32:05.444Z,1.50
2023-01-13T07:34:31.903Z,1.20
2023-01-13T07:36:58.386Z,1.25
2023-01-13T07:39:24.759Z,1.30
2023-01-13T07:42:09.474Z,0.85
2023-01-13T07:44:35.852Z,1.08
2023-01-13T07:47:02.187Z,1.08
2023-01-13T07:49:28.570Z,1.02
2023-01-13T07:51:54.966Z,1.20
2023-01-13T07:54:35.151Z,1.17
2023-01-13T07:57:05.953Z,1.95
2023-01-13T07:59:32.370Z,0.98
2023-01-13T08:01:58.879Z,0.95
2023-01-13T08:04:25.349Z,1.08
2023-01-13T08:06:51.721Z,1.08
2023-01-13T08:09:18.325Z,1.48
2023-01-13T08:11:44.724Z,0.88
2023-01-13T08:14:11.115Z,1.00
2023-01-13T08:16:37.480Z,1.05
2023-01-13T08:19:03.883Z,1.10
2023-01-13T08:21:30.253Z,1.10
2023-01-13T08:23:56.724Z,1.02
2023-01-13T08:26:23.158Z,1.08
2023-01-13T08:28:49.494Z,1.30
2023-01-13T08:31:17.040Z,1.15
2023-01-13T08:33:43.948Z,0.80
2023-01-13T08:36:12.149Z,1.20
2023-01-13T08:38:38.594Z,1.10
2023-01-13T08:41:10.157Z,1.02
2023-01-13T08:43:36.739Z,1.40
2023-01-13T08:46:04.583Z,1.63
2023-01-13T08:48:31.671Z,1.60
2023-01-13T08:51:05.119Z,1.58
2023-01-13T08:53:31.637Z,1.27
2023-01-13T08:55:58.030Z,1.10
2023-01-13T08:58:25.114Z,1.10
2023-01-13T09:00:51.511Z,1.40
2023-01-13T09:03:17.867Z,1.10
2023-01-13T09:05:44.239Z,1.00
2023-01-13T09:08:10.618Z,1.17
2023-01-13T09:10:37.052Z,1.60
2023-01-13T09:13:12.543Z,1.50
2023-01-13T09:15:40.743Z,1.10
2023-01-13T09:18:07.267Z,1.05
2023-01-13T09:20:33.615Z,0.82
2023-01-13T09:23:00.004Z,1.20
2023-01-13T09:25:26.411Z,1.25
2023-01-13T09:27:52.867Z,1.30
2023-01-13T09:30:19.266Z,0.95
2023-01-13T09:32:45.596Z,1.08
2023-01-13T09:35:12.004Z,1.25
2023-01-13T09:37:39.952Z,1.23
2023-01-13T09:40:16.328Z,1.38
2023-01-13T09:43:21.493Z,1.52
2023-01-13T09:45:53.081Z,1.48
2023-01-13T09:48:23.866Z,1.10
2023-01-13T09:51:16.785Z,1.02
2023-01-13T09:53:51.544Z,1.08
2023-01-13T09:56:17.949Z,1.02
2023-01-13T09:58:45.618Z,1.20
2023-01-13T10:01:35.545Z,1.38
2023-01-13T10:04:11.411Z,1.88
2023-01-13T10:06:39.474Z,1.45
2023-01-13T10:09:05.947Z,1.45
2023-01-13T10:11:58.724Z,1.60
2023-01-13T10:14:51.870Z,1.88
2023-01-13T10:17:23.192Z,2.00
2023-01-13T10:20:24.551Z,2.30
2023-01-13T10:23:28.429Z,1.67
2023-01-13T10:26:23.009Z,1.65
2023-01-13T10:28:56.722Z,1.98
2023-01-13T10:31:24.580Z,1.60
2023-01-13T10:34:01.599Z,1.67
2023-01-13T10:36:28.023Z,2.20
2023-01-13T10:39:07.699Z,1.92
2023-01-13T10:41:36.051Z,1.98
2023-01-13T10:44:13.607Z,1.67
2023-01-13T10:46:57.784Z,1.98
2023-01-13T10:49:38.653Z,1.60
2023-01-13T10:52:25.246Z,2.42
2023-01-13T10:54:52.782Z,1.98
2023-01-13T10:57:24.146Z,1.50
2023-01-13T10:59:51.239Z,1.83
2023-01-13T11:02:29.509Z,2.00
2023-01-13T11:04:55.938Z,1.90
2023-01-13T11:07:46.363Z,2.10
2023-01-13T11:10:27.482Z,1.90
2023-01-13T11:13:11.762Z,1.63
2023-01-13T11:15:50.721Z,2.38
2023-01-13T11:18:51.719Z,1.55
2023-01-13T11:21:23.339Z,1.27
2023-01-13T11:23:57.588Z,0.98
2023-01-13T11:26:29.471Z,1.20
2023-01-13T11:29:11.466Z,1.27
2023-01-13T11:31:43.641Z,1.15
2023-01-13T11:34:27.038Z,1.25
2023-01-13T11:36:55.789Z,1.40
2023-01-13T11:39:59.800Z,1.48
2023-01-13T11:42:31.439Z,1.65
2023-01-13T11:45:03.873Z,1.85
2023-01-13T11:47:31.652Z,1.65
2023-01-13T11:49:58.123Z,1.60
2023-01-13T11:52:30.295Z,1.83
2023-01-13T11:55:17.825Z,1.55
2023-01-13T12:01:03.868Z,1.70
2023-01-13T12:03:35.612Z,1.70
2023-01-13T12:06:08.043Z,1.70
2023-01-13T12:08:52.831Z,2.03
2023-01-13T12:11:30.910Z,1.80
2023-01-13T12:14:19.301Z,1.85
2023-01-13T12:16:50.580Z,2.08
2023-01-13T12:19:25.059Z,1.67
2023-01-13T12:22:11.021Z,2.15
2023-01-13T12:24:54.402Z,1.70
2023-01-13T12:27:47.835Z,1.55
2023-01-13T12:30:23.951Z,1.70
2023-01-13T12:32:50.667Z,2.08
2023-01-13T12:35:29.796Z,1.92
2023-01-13T12:38:12.300Z,1.73
2023-01-13T12:40:51.506Z,2.08
2023-01-13T12:43:38.247Z,1.90
2023-01-13T12:46:20.934Z,2.13
2023-01-13T12:48:59.380Z,2.22
2023-01-13T12:51:37.447Z,1.92
2023-01-13T12:54:32.768Z,2.25
2023-01-13T12:56:59.308Z,1.45
2023-01-13T12:59:25.633Z,1.60
2023-01-13T13:02:12.262Z,2.17
2023-01-13T13:04:51.164Z,1.98
2023-01-13T13:07:23.469Z,2.15
2023-01-13T13:09:53.324Z,2.25
2023-01-13T13:13:01.372Z,2.45
2023-01-13T13:15:33.956Z,2.22
2023-01-13T13:18:12.022Z,1.92
2023-01-13T13:20:56.577Z,1.30
2023-01-13T13:23:49.197Z,1.80
2023-01-13T13:26:22.029Z,1.48
2023-01-13T13:29:19.142Z,1.88
2023-01-13T13:32:27.544Z,1.80
2023-01-13T13:35:07.995Z,1.48
2023-01-13T13:38:13.694Z,1.45
2023-01-13T13:41:01.157Z,1.35
2023-01-13T13:43:46.959Z,1.40
2023-01-13T13:46:49.197Z,1.20
2023-01-13T13:49:18.205Z,1.00
2023-01-13T13:52:00.642Z,1.30
2023-01-13T13:54:27.268Z,1.33
2023-01-13T13:56:53.765Z,1.33
2023-01-13T13:59:25.066Z,1.42
2023-01-13T14:02:01.442Z,1.55
2023-01-13T14:04:33.206Z,1.33
2023-01-13T14:07:04.243Z,1.67
2023-01-13T14:09:41.326Z,1.70
2023-01-13T14:12:19.633Z,1.52
2023-01-13T14:14:47.369Z,1.70
2023-01-13T14:17:27.807Z,1.90
2023-01-13T14:20:07.836Z,1.67
2023-01-13T14:22:34.546Z,1.38
2023-01-13T14:25:01.927Z,2.33
2023-01-13T14:27:29.900Z,1.35
2023-01-13T14:29:59.237Z,1.80
2023-01-13T14:32:31.450Z,1.60
2023-01-13T14:34:57.845Z,2.08
2023-01-13T14:37:39.359Z,1.73
2023-01-13T14:40:06.269Z,1.98
2023-01-13T14:42:35.321Z,1.50
2023-01-13T14:45:03.097Z,1.80
2023-01-13T14:47:32.229Z,2.03
2023-01-13T14:50:02.923Z,1.80
2023-01-13T14:52:34.795Z,1.80
2023-01-13T14:55:08.585Z,2.03
2023-01-13T14:57:36.596Z,1.70
2023-01-13T15:00:15.089Z,1.70
2023-01-13T15:02:48.407Z,1.80
2023-01-13T15:05:17.709Z,2.00
2023-01-13T15:08:09.712Z,1.60
2023-01-13T15:10:45.318Z,2.00
2023-01-13T15:13:26.757Z,2.30
2023-01-13T15:15:59.720Z,1.98
2023-01-13T15:18:26.157Z,2.08
2023-01-13T15:20:54.895Z,2.38
2023-01-13T15:23:21.755Z,2.20
2023-01-13T15:25:48.861Z,2.42
2023-01-13T15:28:20.517Z,2.00
2023-01-13T15:30:47.997Z,2.00
2023-01-13T15:33:15.925Z,2.00
2023-01-13T15:35:45.175Z,1.63
2023-01-13T15:38:16.214Z,2.47
2023-01-13T15:40:43.309Z,1.73
2023-01-13T15:43:46.596Z,2.65
2023-01-13T15:46:37.792Z,1.83
2023-01-13T15:49:09.726Z,2.13
2023-01-13T15:51:36.551Z,2.08
2023-01-13T15:54:03.001Z,2.00
2023-01-13T15:56:29.450Z,2.50
2023-01-13T15:58:55.982Z,1.45
2023-01-13T16:01:23.247Z,1.85
2023-01-13T16:03:49.832Z,1.67
2023-01-13T16:06:19.639Z,2.00
2023-01-13T16:08:46.343Z,2.10
2023-01-13T16:11:12.707Z,2.08
2023-01-13T16:13:39.436Z,2.40
2023-01-13T16:16:23.500Z,1.73
2023-01-13T16:18:50.917Z,2.10
2023-01-13T16:21:19.263Z,2.17
2023-01-13T16:23:45.866Z,1.83
2023-01-13T16:26:18.162Z,1.40
2023-01-13T16:28:44.660Z,1.88
2023-01-13T16:31:27.159Z,2.10
2023-01-13T16:33:53.993Z,1.73
2023-01-13T16:36:21.384Z,1.88
2023-01-13T16:38:49.092Z,1.88
2023-01-13T16:41:16.805Z,1.67
2023-01-13T16:43:43.596Z,1.60
2023-01-13T16:46:24.997Z,2.25
2023-01-13T16:48:55.263Z,2.28
2023-01-13T16:51:22.596Z,2.28
2023-01-13T16:53:49.564Z,2.00
2023-01-13T16:56:29.204Z,1.98
2023-01-13T16:59:01.189Z,2.25
2023-01-13T17:01:29.568Z,2.08
2023-01-13T17:03:56.753Z,1.83
2023-01-13T17:06:32.402Z,1.90
2023-01-13T17:09:03.823Z,2.25
2023-01-13T17:11:30.634Z,1.92
2023-01-13T17:13:57.076Z,2.00
2023-01-13T17:16:24.461Z,2.30
2023-01-13T17:18:51.025Z,2.38
2023-01-13T17:21:17.496Z,2.22
2023-01-13T17:23:44.456Z,2.95
2023-01-13T17:26:25.617Z,2.40
2023-01-13T17:28:53.759Z,2.45
2023-01-13T17:31:20.123Z,2.05
2023-01-13T17:33:46.499Z,2.30
2023-01-13T17:36:12.817Z,1.92
2023-01-13T17:38:39.139Z,2.20
2023-01-13T17:41:05.449Z,1.80
2023-01-13T17:43:32.094Z,1.80
2023-01-13T17:45:59.797Z,1.77
2023-01-13T17:48:26.721Z,1.70
2023-01-13T17:50:53.522Z,2.00
2023-01-13T17:53:20.571Z,1.75
2023-01-13T17:55:51.503Z,1.92
2023-01-13T17:58:17.991Z,1.60
2023-01-13T18:00:44.920Z,2.10
2023-01-13T18:03:11.707Z,2.00
2023-01-13T18:05:38.746Z,2.15
2023-01-13T18:08:05.314Z,2.38
2023-01-13T18:10:32.840Z,1.83
2023-01-13T18:12:59.250Z,2.08
2023-01-13T18:15:25.957Z,2.15
2023-01-13T18:17:52.287Z,2.05
2023-01-13T18:20:37.674Z,1.60
2023-01-13T18:23:22.429Z,2.65
2023-01-13T18:26:07.485Z,2.20
2023-01-13T18:28:33.904Z,2.00
2023-01-13T18:31:00.321Z,2.40
2023-01-13T18:33:26.687Z,2.00
2023-01-13T18:35:53.015Z,1.58
2023-01-13T18:38:28.387Z,2.38
2023-01-13T18:40:54.816Z,2.50
2023-01-13T18:43:21.176Z,2.25
2023-01-13T18:45:50.294Z,1.75
2023-01-13T18:48:16.697Z,2.20
2023-01-13T18:50:43.892Z,2.60
2023-01-13T18:53:10.222Z,2.22
2023-01-13T18:55:37.313Z,2.45
2023-01-13T18:58:04.386Z,2.42
2023-01-13T19:00:36.310Z,2.40
2023-01-13T19:05:32.590Z,2.42
2023-01-13T19:07:59.171Z,2.45
2023-01-13T19:10:27.606Z,2.30
2023-01-13T19:12:53.908Z,2.53
2023-01-13T19:15:20.232Z,3.22
2023-01-13T19:17:46.688Z,2.65
2023-01-13T19:20:13.016Z,2.75
2023-01-13T19:22:39.467Z,3.47
2023-01-13T19:25:06.048Z,3.22
2023-01-13T19:27:32.454Z,2.85
2023-01-13T19:30:00.450Z,3.47
2023-01-13T19:32:27.529Z,3.63
2023-01-13T19:34:54.940Z,3.78
2023-01-13T19:37:21.347Z,3.13
2023-01-13T19:39:47.712Z,3.33
2023-01-13T19:42:33.372Z,3.75
2023-01-13T19:45:18.085Z,3.70
2023-01-13T19:47:45.689Z,2.80
2023-01-13T19:50:13.773Z,3.05
2023-01-13T19:52:41.310Z,2.65
2023-01-13T19:55:07.891Z,2.17
2023-01-13T19:57:34.247Z,2.63
2023-01-13T20:00:00.644Z,2.58
2023-01-13T20:02:31.479Z,2.67
2023-01-13T20:04:59.935Z,2.72
2023-01-13T20:07:28.391Z,2.83
2023-01-13T20:09:56.294Z,2.40
2023-01-13T20:12:23.739Z,2.65
2023-01-13T20:14:50.143Z,2.90
2023-01-13T20:17:18.825Z,3.00
2023-01-13T20:19:45.187Z,3.08
2023-01-13T20:22:11.828Z,2.75
2023-01-13T20:24:38.212Z,3.25
2023-01-13T20:27:05.438Z,2.30
2023-01-13T20:29:32.229Z,2.60
2023-01-13T20:31:58.573Z,2.40
2023-01-13T20:34:24.969Z,2.50
2023-01-13T20:36:51.417Z,2.17
2023-01-13T20:39:23.539Z,2.33
2023-01-13T20:42:08.850Z,2.85
2023-01-13T20:44:35.425Z,2.78
2023-01-13T20:47:02.718Z,2.65
2023-01-13T20:49:30.092Z,2.75
2023-01-13T20:51:57.034Z,2.47
2023-01-13T20:54:23.600Z,2.88
2023-01-13T20:56:49.919Z,2.65
2023-01-13T20:59:16.471Z,2.05
2023-01-13T21:01:43.010Z,2.95
2023-01-13T21:04:09.612Z,2.75
2023-01-13T21:06:36.224Z,2.42
2023-01-13T21:09:02.574Z,2.55
2023-01-13T21:11:47.320Z,2.88
2023-01-13T21:14:33.914Z,2.80
2023-01-13T21:17:00.353Z,3.08
2023-01-13T21:19:26.765Z,2.92
2023-01-13T21:21:54.057Z,2.58
2023-01-13T21:24:20.509Z,2.65
2023-01-13T21:26:48.960Z,2.85
2023-01-13T21:29:15.317Z,2.67
2023-01-13T21:31:41.766Z,2.72
2023-01-13T21:34:09.733Z,2.30
2023-01-13T21:36:36.118Z,3.17
2023-01-13T21:39:02.554Z,2.70
2023-01-13T21:41:47.359Z,3.22
2023-01-13T21:44:37.624Z,3.22
2023-01-13T21:47:23.632Z,2.90
2023-01-13T21:49:50.027Z,2.80
2023-01-13T21:52:16.450Z,3.63
2023-01-13T21:55:01.162Z,2.53
2023-01-13T21:57:27.807Z,3.30
2023-01-13T21:59:54.129Z,2.67
2023-01-13T22:02:31.831Z,2.83
2023-01-13T22:05:03.756Z,2.47
2023-01-13T22:07:32.319Z,2.90
2023-01-13T22:09:59.177Z,2.55
2023-01-13T22:12:25.685Z,2.40
2023-01-13T22:14:52.193Z,2.63
2023-01-13T22:17:20.814Z,2.70
2023-01-13T22:19:47.917Z,2.80
2023-01-13T22:22:15.837Z,3.08
2023-01-13T22:24:43.509Z,2.75
2023-01-13T22:27:10.754Z,2.33
2023-01-13T22:29:37.814Z,2.38
2023-01-13T22:32:05.132Z,2.15
2023-01-13T22:34:32.281Z,2.47
2023-01-13T22:36:59.200Z,2.85
2023-01-13T22:39:26.050Z,2.40
2023-01-13T22:41:52.631Z,2.40
2023-01-13T22:44:19.156Z,2.40
2023-01-13T22:46:45.801Z,2.30
2023-01-13T22:49:14.865Z,2.20
2023-01-13T22:51:41.263Z,2.42
2023-01-13T22:54:07.977Z,2.55
2023-01-13T22:56:34.433Z,2.38
2023-01-13T22:59:01.940Z,3.10
2023-01-13T23:01:31.077Z,2.22
2023-01-13T23:03:57.744Z,2.10
2023-01-13T23:06:25.886Z,1.98
2023-01-13T23:08:52.654Z,3.03
2023-01-13T23:11:22.893Z,2.67
2023-01-13T23:13:49.940Z,2.58
2023-01-13T23:16:21.216Z,2.42
2023-01-13T23:18:48.521Z,2.30
2023-01-13T23:21:29.930Z,2.03
2023-01-13T23:23:58.578Z,2.17
2023-01-13T23:26:25.778Z,2.42
2023-01-13T23:28:52.334Z,1.98
2023-01-13T23:31:21.135Z,1.80
2023-01-13T23:33:48.208Z,2.22
2023-01-13T23:36:23.418Z,2.80
2023-01-13T23:38:50.212Z,2.38
2023-01-13T23:41:19.554Z,3.08
2023-01-13T23:44:01.386Z,2.72
2023-01-13T23:46:29.748Z,2.88
2023-01-13T23:48:56.541Z,3.22
2023-01-13T23:51:23.479Z,3.10
2023-01-13T23:53:50.451Z,2.95
2023-01-13T23:56:20.180Z,3.05
2023-01-13T23:58:47.300Z,3.17
